createdAt,value
2017-02-06T00:00:18.190Z,16.05
2017-02-06T00:01:28.907Z,16.08
2017-02-06T00:02:39.627Z,16.02
2017-02-06T00:03:50.347Z,16
2017-02-06T00:05:01.077Z,15.99
2017-02-06T00:06:12.037Z,16.05
2017-02-06T00:07:22.994Z,16.02
2017-02-06T00:08:33.321Z,16.05
2017-02-06T00:09:43.647Z,15.99
2017-02-06T00:10:54.363Z,16.05
2017-02-06T00:12:05.396Z,16
2017-02-06T00:13:15.724Z,16.03
2017-02-06T00:14:25.262Z,16
2017-02-06T00:15:35.595Z,16
2017-02-06T00:16:45.906Z,15.98
2017-02-06T00:17:56.871Z,16.05
2017-02-06T00:19:07.631Z,16.05
2017-02-06T00:20:17.957Z,16.05
2017-02-06T00:21:28.668Z,16.03
2017-02-06T00:22:38.210Z,16.05
2017-02-06T00:23:48.380Z,16.03
2017-02-06T00:24:58.703Z,16.05
2017-02-06T00:26:09.426Z,16.02
2017-02-06T00:27:19.362Z,15.98
2017-02-06T00:28:29.688Z,15.99
2017-02-06T00:29:39.865Z,16.05
2017-02-06T00:30:50.588Z,15.94
2017-02-06T00:32:00.917Z,16.03
2017-02-06T00:33:11.624Z,15.96
2017-02-06T00:34:21.943Z,16
2017-02-06T00:35:32.521Z,15.99
2017-02-06T00:36:43.233Z,16
2017-02-06T00:37:53.204Z,16.06
2017-02-06T00:39:03.535Z,16.03
2017-02-06T00:40:14.249Z,15.96
2017-02-06T00:41:24.473Z,16.03
2017-02-06T00:42:35.224Z,15.94
2017-02-06T00:43:45.541Z,15.92
2017-02-06T00:44:55.861Z,15.99
2017-02-06T00:46:06.181Z,15.91
2017-02-06T00:47:16.803Z,15.9
2017-02-06T00:48:26.335Z,15.98
2017-02-06T00:49:37.067Z,15.94
2017-02-06T00:50:47.769Z,15.94
2017-02-06T00:51:58.098Z,15.84
2017-02-06T00:53:08.319Z,15.99
2017-02-06T00:54:18.744Z,15.98
2017-02-06T00:55:28.277Z,15.92
2017-02-06T00:56:39.050Z,15.9
2017-02-06T00:57:49.390Z,15.85
2017-02-06T00:59:00.344Z,15.91
2017-02-06T01:00:10.671Z,15.92
2017-02-06T01:01:21.296Z,16
2017-02-06T01:02:31.611Z,15.99
2017-02-06T01:03:42.322Z,15.99
2017-02-06T01:04:52.888Z,16.05
2017-02-06T01:06:03.209Z,16.02
2017-02-06T01:07:13.932Z,15.99
2017-02-06T01:08:23.868Z,16.06
2017-02-06T01:09:34.193Z,15.91
2017-02-06T01:10:44.756Z,16
2017-02-06T01:11:55.077Z,15.99
2017-02-06T01:13:05.788Z,16
2017-02-06T01:14:16.517Z,15.94
2017-02-06T01:15:26.850Z,16.05
2017-02-06T01:16:37.479Z,16.02
2017-02-06T01:17:47.809Z,15.96
2017-02-06T01:18:58.133Z,15.91
2017-02-06T01:20:08.455Z,15.99
2017-02-06T01:21:18.771Z,16.03
2017-02-06T01:22:29.390Z,16.02
2017-02-06T01:23:39.710Z,15.99
2017-02-06T01:24:50.039Z,16
2017-02-06T01:26:00.365Z,16.02
2017-02-06T01:27:11.078Z,15.99
2017-02-06T01:28:21.639Z,15.94
2017-02-06T01:29:31.550Z,15.9
2017-02-06T01:30:41.873Z,15.84
2017-02-06T01:31:52.583Z,15.88
2017-02-06T01:33:02.510Z,15.81
2017-02-06T01:34:12.730Z,15.87
2017-02-06T01:35:23.454Z,15.98
2017-02-06T01:36:33.770Z,15.85
2017-02-06T01:37:44.090Z,15.91
2017-02-06T01:38:54.797Z,16
2017-02-06T01:40:05.420Z,15.91
2017-02-06T01:41:16.135Z,15.99
2017-02-06T01:42:26.851Z,16
2017-02-06T01:43:37.562Z,16.02
2017-02-06T01:44:48.295Z,15.92
2017-02-06T01:45:58.864Z,16
2017-02-06T01:47:09.565Z,15.94
2017-02-06T01:48:19.877Z,15.96
2017-02-06T01:49:29.809Z,15.91
2017-02-06T01:50:39.728Z,15.91
2017-02-06T01:51:50.341Z,15.98
2017-02-06T01:53:01.081Z,15.98
2017-02-06T01:54:11.405Z,16.02
2017-02-06T01:55:21.359Z,15.92
2017-02-06T01:56:31.680Z,15.92
2017-02-06T01:57:42.636Z,15.92
2017-02-06T01:58:52.957Z,15.85
2017-02-06T02:00:02.877Z,15.91
2017-02-06T02:01:12.797Z,15.88
2017-02-06T02:02:23.517Z,15.87
2017-02-06T02:03:34.581Z,15.88
2017-02-06T02:04:44.509Z,15.9
2017-02-06T02:05:54.435Z,15.98
2017-02-06T02:07:04.752Z,16.02
2017-02-06T02:08:15.065Z,15.81
2017-02-06T02:09:25.695Z,15.84
2017-02-06T02:10:36.021Z,15.81
2017-02-06T02:11:46.345Z,15.83
2017-02-06T02:12:57.071Z,15.83
2017-02-06T02:14:07.385Z,15.87
2017-02-06T02:15:18.400Z,15.88
2017-02-06T02:16:28.315Z,15.85
2017-02-06T02:17:38.230Z,15.87
2017-02-06T02:18:48.563Z,15.78
2017-02-06T02:19:58.495Z,15.88
2017-02-06T02:21:08.664Z,15.81
2017-02-06T02:22:18.975Z,15.84
2017-02-06T02:23:29.308Z,15.87
2017-02-06T02:24:40.015Z,15.99
2017-02-06T02:25:50.335Z,15.81
2017-02-06T02:27:00.959Z,15.88
2017-02-06T02:28:11.268Z,15.9
2017-02-06T02:29:21.589Z,15.92
2017-02-06T02:30:32.657Z,15.83
2017-02-06T02:31:42.981Z,15.87
2017-02-06T02:32:52.827Z,15.9
2017-02-06T02:34:03.538Z,15.85
2017-02-06T02:35:13.867Z,15.96
2017-02-06T02:36:24.616Z,15.99
2017-02-06T02:37:34.539Z,15.91
2017-02-06T02:38:45.555Z,15.88
2017-02-06T02:39:56.268Z,15.88
2017-02-06T02:41:06.587Z,15.84
2017-02-06T02:42:16.895Z,15.85
2017-02-06T02:43:27.208Z,15.85
2017-02-06T02:44:37.825Z,15.75
2017-02-06T02:45:48.536Z,15.75
2017-02-06T02:46:59.256Z,15.63
2017-02-06T02:48:09.565Z,15.72
2017-02-06T02:49:19.886Z,15.73
2017-02-06T02:50:30.487Z,15.8
2017-02-06T02:51:40.802Z,15.73
2017-02-06T02:52:51.510Z,15.8
2017-02-06T02:54:01.824Z,15.76
2017-02-06T02:55:12.149Z,15.81
2017-02-06T02:56:23.157Z,15.76
2017-02-06T02:57:33.468Z,15.76
2017-02-06T02:58:43.804Z,15.84
2017-02-06T02:59:54.124Z,15.76
2017-02-06T03:01:04.450Z,15.84
2017-02-06T03:02:15.017Z,15.78
2017-02-06T03:03:25.821Z,15.84
2017-02-06T03:04:35.748Z,15.81
2017-02-06T03:05:46.457Z,15.76
2017-02-06T03:06:56.780Z,15.73
2017-02-06T03:08:07.792Z,15.7
2017-02-06T03:09:18.114Z,15.7
2017-02-06T03:10:28.838Z,15.88
2017-02-06T03:11:39.548Z,15.75
2017-02-06T03:12:49.869Z,15.75
2017-02-06T03:14:00.643Z,15.76
2017-02-06T03:15:10.956Z,15.83
2017-02-06T03:16:21.667Z,15.75
2017-02-06T03:17:31.992Z,15.8
2017-02-06T03:18:42.716Z,15.85
2017-02-06T03:19:52.892Z,15.84
2017-02-06T03:21:02.816Z,15.75
2017-02-06T03:22:13.139Z,15.83
2017-02-06T03:23:23.059Z,15.76
2017-02-06T03:24:33.769Z,15.76
2017-02-06T03:25:44.783Z,15.84
2017-02-06T03:26:55.500Z,15.81
2017-02-06T03:28:05.425Z,15.78
2017-02-06T03:29:16.133Z,15.84
2017-02-06T03:30:26.499Z,15.76
2017-02-06T03:31:36.688Z,15.83
2017-02-06T03:32:46.613Z,15.7
2017-02-06T03:33:56.924Z,15.76
2017-02-06T03:35:07.238Z,15.76
2017-02-06T03:36:17.967Z,15.81
2017-02-06T03:37:28.524Z,15.81
2017-02-06T03:38:38.838Z,15.73
2017-02-06T03:39:49.547Z,15.76
2017-02-06T03:41:00.263Z,15.83
2017-02-06T03:42:09.813Z,15.76
2017-02-06T03:43:20.809Z,15.81
2017-02-06T03:44:30.725Z,15.78
2017-02-06T03:45:41.468Z,15.75
2017-02-06T03:46:51.945Z,15.72
2017-02-06T03:48:02.261Z,15.7
2017-02-06T03:49:12.878Z,15.73
2017-02-06T03:50:22.809Z,15.8
2017-02-06T03:51:33.513Z,15.76
2017-02-06T03:52:43.832Z,15.62
2017-02-06T03:53:54.143Z,15.73
2017-02-06T03:55:05.162Z,15.76
2017-02-06T03:56:15.480Z,15.78
2017-02-06T03:57:25.790Z,15.73
2017-02-06T03:58:36.497Z,15.72
2017-02-06T03:59:46.806Z,15.72
2017-02-06T04:00:57.759Z,15.73
2017-02-06T04:02:08.479Z,15.76
2017-02-06T04:03:18.411Z,15.72
2017-02-06T04:04:29.119Z,15.67
2017-02-06T04:05:39.438Z,15.7
2017-02-06T04:06:50.050Z,15.83
2017-02-06T04:07:59.589Z,15.76
2017-02-06T04:09:09.516Z,15.7
2017-02-06T04:10:20.079Z,15.72
2017-02-06T04:11:30.799Z,15.73
2017-02-06T04:12:41.368Z,15.75
2017-02-06T04:13:51.316Z,15.73
2017-02-06T04:15:01.631Z,15.7
2017-02-06T04:16:11.937Z,15.72
2017-02-06T04:17:22.654Z,15.78
2017-02-06T04:18:33.224Z,15.72
2017-02-06T04:19:43.549Z,15.72
2017-02-06T04:20:53.893Z,15.72
2017-02-06T04:22:04.623Z,15.63
2017-02-06T04:23:15.346Z,15.59
2017-02-06T04:24:25.922Z,15.66
2017-02-06T04:25:36.261Z,15.63
2017-02-06T04:26:45.791Z,15.75
2017-02-06T04:27:56.114Z,15.67
2017-02-06T04:29:06.440Z,15.63
2017-02-06T04:30:16.997Z,15.69
2017-02-06T04:31:27.323Z,15.65
2017-02-06T04:32:37.247Z,15.78
2017-02-06T04:33:47.954Z,15.72
2017-02-06T04:34:58.268Z,15.78
2017-02-06T04:36:08.891Z,15.69
2017-02-06T04:37:19.208Z,15.67
2017-02-06T04:38:29.526Z,15.7
2017-02-06T04:39:39.848Z,15.69
2017-02-06T04:40:50.562Z,15.75
2017-02-06T04:42:01.631Z,15.67
2017-02-06T04:43:11.955Z,15.69
2017-02-06T04:44:22.667Z,15.78
2017-02-06T04:45:32.985Z,15.69
2017-02-06T04:46:42.904Z,15.72
2017-02-06T04:47:53.544Z,15.62
2017-02-06T04:49:03.463Z,15.69
2017-02-06T04:50:14.176Z,15.75
2017-02-06T04:51:24.897Z,15.75
2017-02-06T04:52:35.619Z,15.83
2017-02-06T04:53:46.646Z,15.72
2017-02-06T04:54:56.987Z,15.75
2017-02-06T04:56:06.911Z,15.75
2017-02-06T04:57:17.618Z,15.75
2017-02-06T04:58:27.932Z,15.66
2017-02-06T04:59:38.901Z,15.75
2017-02-06T05:00:49.620Z,15.78
2017-02-06T05:01:59.937Z,15.78
2017-02-06T05:03:10.255Z,15.72
2017-02-06T05:04:20.982Z,15.75
2017-02-06T05:05:31.548Z,15.73
2017-02-06T05:06:41.862Z,15.72
2017-02-06T05:07:52.576Z,15.73
2017-02-06T05:09:02.496Z,15.65
2017-02-06T05:10:12.810Z,15.65
2017-02-06T05:11:23.423Z,15.7
2017-02-06T05:12:34.128Z,15.63
2017-02-06T05:13:44.848Z,15.55
2017-02-06T05:14:55.557Z,15.65
2017-02-06T05:16:06.272Z,15.63
2017-02-06T05:17:17.286Z,15.65
2017-02-06T05:18:27.608Z,15.62
2017-02-06T05:19:38.313Z,15.69
2017-02-06T05:20:48.240Z,15.63
2017-02-06T05:21:57.773Z,15.57
2017-02-06T05:23:08.397Z,15.67
2017-02-06T05:24:18.729Z,15.67
2017-02-06T05:25:29.050Z,15.72
2017-02-06T05:26:39.365Z,15.7
2017-02-06T05:27:50.070Z,15.6
2017-02-06T05:29:00.644Z,15.66
2017-02-06T05:30:10.970Z,15.65
2017-02-06T05:31:21.297Z,15.67
2017-02-06T05:32:32.019Z,15.67
2017-02-06T05:33:42.723Z,15.63
2017-02-06T05:34:53.686Z,15.65
2017-02-06T05:36:04.007Z,15.72
2017-02-06T05:37:13.142Z,15.75
2017-02-06T05:38:23.072Z,15.73
2017-02-06T05:39:33.395Z,15.59
2017-02-06T05:40:44.368Z,15.67
2017-02-06T05:41:55.080Z,15.73
2017-02-06T05:43:05.815Z,15.78
2017-02-06T05:44:15.348Z,15.78
2017-02-06T05:45:26.058Z,15.69
2017-02-06T05:46:37.024Z,15.7
2017-02-06T05:47:46.954Z,15.57
2017-02-06T05:48:57.271Z,15.63
2017-02-06T05:50:07.597Z,15.67
2017-02-06T05:51:17.923Z,15.69
2017-02-06T05:52:28.891Z,15.72
2017-02-06T05:53:39.213Z,15.67
2017-02-06T05:54:49.133Z,15.66
2017-02-06T05:55:59.850Z,15.65
2017-02-06T05:57:10.165Z,15.7
2017-02-06T05:58:21.171Z,15.75
2017-02-06T05:59:31.940Z,15.69
2017-02-06T06:00:42.654Z,15.6
2017-02-06T06:01:53.377Z,15.69
2017-02-06T06:03:03.708Z,15.72
2017-02-06T06:04:14.285Z,15.62
2017-02-06T06:05:24.217Z,15.69
2017-02-06T06:06:34.930Z,15.72
2017-02-06T06:07:45.639Z,15.72
2017-02-06T06:08:55.970Z,15.69
2017-02-06T06:10:06.554Z,15.66
2017-02-06T06:11:16.485Z,15.67
2017-02-06T06:12:26.401Z,15.72
2017-02-06T06:13:36.325Z,15.66
2017-02-06T06:14:46.660Z,15.6
2017-02-06T06:15:57.693Z,15.73
2017-02-06T06:17:07.626Z,15.62
2017-02-06T06:18:18.324Z,15.63
2017-02-06T06:19:29.068Z,15.67
2017-02-06T06:20:39.801Z,15.57
2017-02-06T06:21:50.428Z,15.62
2017-02-06T06:23:00.751Z,15.66
2017-02-06T06:24:11.077Z,15.75
2017-02-06T06:25:21.791Z,15.72
2017-02-06T06:26:32.114Z,15.67
2017-02-06T06:27:43.087Z,15.67
2017-02-06T06:28:53.410Z,15.63
2017-02-06T06:30:03.340Z,15.72
2017-02-06T06:31:13.664Z,15.76
2017-02-06T06:32:24.025Z,15.78
2017-02-06T06:33:35.006Z,15.62
2017-02-06T06:34:45.762Z,15.65
2017-02-06T06:35:56.119Z,15.57
2017-02-06T06:37:06.841Z,15.67
2017-02-06T06:38:17.177Z,15.72
2017-02-06T06:39:27.392Z,15.69
2017-02-06T06:40:37.704Z,15.72
2017-02-06T06:41:48.432Z,15.76
2017-02-06T06:42:58.374Z,15.65
2017-02-06T06:44:09.090Z,15.6
2017-02-06T06:45:19.712Z,15.63
2017-02-06T06:46:29.641Z,15.59
2017-02-06T06:47:39.195Z,15.67
2017-02-06T06:48:49.549Z,15.69
2017-02-06T06:50:00.286Z,15.69
2017-02-06T06:51:10.865Z,15.65
2017-02-06T06:52:21.198Z,15.65
2017-02-06T06:53:31.951Z,15.72
2017-02-06T06:54:42.687Z,15.57
2017-02-06T06:55:53.421Z,15.67
2017-02-06T06:57:03.617Z,15.66
2017-02-06T06:58:13.139Z,15.6
2017-02-06T06:59:22.385Z,15.7
2017-02-06T07:00:32.736Z,15.69
2017-02-06T07:01:43.065Z,15.63
2017-02-06T07:02:53.650Z,15.67
2017-02-06T07:04:03.187Z,15.54
2017-02-06T07:05:13.903Z,15.6
2017-02-06T07:06:24.221Z,15.62
2017-02-06T07:07:34.941Z,15.62
2017-02-06T07:08:45.919Z,15.67
2017-02-06T07:09:56.248Z,15.66
2017-02-06T07:11:06.567Z,15.62
2017-02-06T07:12:16.880Z,15.65
2017-02-06T07:13:26.846Z,15.67
2017-02-06T07:14:37.427Z,15.72
2017-02-06T07:15:47.741Z,15.7
2017-02-06T07:16:58.483Z,15.76
2017-02-06T07:18:08.838Z,15.72
2017-02-06T07:19:19.571Z,15.75
2017-02-06T07:20:30.157Z,15.8
2017-02-06T07:21:40.476Z,15.73
2017-02-06T07:22:50.838Z,15.75
2017-02-06T07:24:01.568Z,15.76
2017-02-06T07:25:12.304Z,15.69
2017-02-06T07:26:23.280Z,15.72
2017-02-06T07:27:34.038Z,15.7
2017-02-06T07:28:44.767Z,15.75
2017-02-06T07:29:54.744Z,15.76
2017-02-06T07:31:05.500Z,15.76
2017-02-06T07:32:16.108Z,15.8
2017-02-06T07:33:26.838Z,15.76
2017-02-06T07:34:37.194Z,15.73
2017-02-06T07:35:47.917Z,15.8
2017-02-06T07:36:57.845Z,15.73
2017-02-06T07:38:08.726Z,15.7
2017-02-06T07:39:18.288Z,15.69
2017-02-06T07:40:28.629Z,15.76
2017-02-06T07:41:39.376Z,15.8
2017-02-06T07:42:50.113Z,15.75
2017-02-06T07:44:00.710Z,15.72
2017-02-06T07:45:11.058Z,15.75
2017-02-06T07:46:21.039Z,15.81
2017-02-06T07:47:31.009Z,15.7
2017-02-06T07:48:41.389Z,15.73
2017-02-06T07:49:52.039Z,15.7
2017-02-06T07:51:02.758Z,15.76
2017-02-06T07:52:13.488Z,15.76
2017-02-06T07:53:23.818Z,15.72
2017-02-06T07:54:33.744Z,15.69
2017-02-06T07:55:44.716Z,15.8
2017-02-06T07:56:54.653Z,15.73
2017-02-06T07:58:04.587Z,15.7
2017-02-06T07:59:15.324Z,15.73
2017-02-06T08:00:26.051Z,15.76
2017-02-06T08:01:36.284Z,15.78
2017-02-06T08:02:46.612Z,15.69
2017-02-06T08:03:56.931Z,15.72
2017-02-06T08:05:07.260Z,15.78
2017-02-06T08:06:17.590Z,15.87
2017-02-06T08:07:28.236Z,15.76
2017-02-06T08:08:38.950Z,15.76
2017-02-06T08:09:49.671Z,15.75
2017-02-06T08:10:59.604Z,15.67
2017-02-06T08:12:10.324Z,15.81
2017-02-06T08:13:19.705Z,15.69
2017-02-06T08:14:29.638Z,15.76
2017-02-06T08:15:40.369Z,15.83
2017-02-06T08:16:50.307Z,15.76
2017-02-06T08:18:00.644Z,15.72
2017-02-06T08:19:11.628Z,15.73
2017-02-06T08:20:22.010Z,15.76
2017-02-06T08:21:31.957Z,15.78
2017-02-06T08:22:41.897Z,15.76
2017-02-06T08:23:52.248Z,15.76
2017-02-06T08:25:02.882Z,15.75
2017-02-06T08:26:13.213Z,15.76
2017-02-06T08:27:23.559Z,15.75
2017-02-06T08:28:33.605Z,15.78
2017-02-06T08:29:44.413Z,15.72
2017-02-06T08:30:55.386Z,15.83
2017-02-06T08:32:06.118Z,15.81
2017-02-06T08:33:16.450Z,15.67
2017-02-06T08:34:26.411Z,15.65
2017-02-06T08:35:36.320Z,15.72
2017-02-06T08:36:47.433Z,15.76
2017-02-06T08:37:57.772Z,15.72
2017-02-06T08:39:08.501Z,15.78
2017-02-06T08:40:18.817Z,15.75
2017-02-06T08:41:29.142Z,15.78
2017-02-06T08:42:39.734Z,15.78
2017-02-06T08:43:50.063Z,15.81
2017-02-06T08:45:00.412Z,15.72
2017-02-06T08:46:10.339Z,15.7
2017-02-06T08:47:20.275Z,15.69
2017-02-06T08:48:31.264Z,15.7
2017-02-06T08:49:42.018Z,15.7
2017-02-06T08:50:52.775Z,15.66
2017-02-06T08:52:03.509Z,15.55
2017-02-06T08:53:13.436Z,15.62
2017-02-06T08:54:24.050Z,15.75
2017-02-06T08:55:34.798Z,15.78
2017-02-06T08:56:44.747Z,15.73
2017-02-06T08:57:54.728Z,15.72
2017-02-06T08:59:05.487Z,15.62
2017-02-06T09:00:16.144Z,15.67
2017-02-06T09:01:26.938Z,15.65
2017-02-06T09:02:37.290Z,15.67
2017-02-06T09:03:48.101Z,15.65
2017-02-06T09:04:58.841Z,15.73
2017-02-06T09:06:09.057Z,15.75
2017-02-06T09:07:19.394Z,15.7
2017-02-06T09:08:29.075Z,15.73
2017-02-06T09:09:39.867Z,15.73
2017-02-06T09:10:50.040Z,15.67
2017-02-06T09:12:00.709Z,15.65
2017-02-06T09:13:11.058Z,15.69
2017-02-06T09:14:21.774Z,15.73
2017-02-06T09:15:32.546Z,15.7
2017-02-06T09:16:43.265Z,15.63
2017-02-06T09:17:54.091Z,15.76
2017-02-06T09:19:04.833Z,15.75
2017-02-06T09:20:15.560Z,15.78
2017-02-06T09:21:25.483Z,15.67
2017-02-06T09:22:35.434Z,15.63
2017-02-06T09:23:45.637Z,15.66
2017-02-06T09:24:54.837Z,15.6
2017-02-06T09:26:05.655Z,15.66
2017-02-06T09:27:16.398Z,15.67
2017-02-06T09:28:26.734Z,15.78
2017-02-06T09:29:37.713Z,15.7
2017-02-06T09:30:47.677Z,15.67
2017-02-06T09:31:57.996Z,15.57
2017-02-06T09:33:08.328Z,15.55
2017-02-06T09:34:18.663Z,15.72
2017-02-06T09:35:29.236Z,15.62
2017-02-06T09:36:40.059Z,15.72
2017-02-06T09:37:50.396Z,15.8
2017-02-06T09:39:00.353Z,15.81
2017-02-06T09:40:11.015Z,15.78
2017-02-06T09:41:21.777Z,15.73
2017-02-06T09:42:32.119Z,15.72
2017-02-06T09:43:42.842Z,15.78
2017-02-06T09:44:52.373Z,15.76
2017-02-06T09:46:02.649Z,15.75
2017-02-06T09:47:13.397Z,15.84
2017-02-06T09:48:23.729Z,15.76
2017-02-06T09:49:33.650Z,15.78
2017-02-06T09:50:43.604Z,15.87
2017-02-06T09:51:53.934Z,15.88
2017-02-06T09:53:04.280Z,15.81
2017-02-06T09:54:14.222Z,15.84
2017-02-06T09:55:24.552Z,15.98
2017-02-06T09:56:35.137Z,15.85
2017-02-06T09:57:45.477Z,15.96
2017-02-06T09:58:55.796Z,15.98
2017-02-06T10:00:05.740Z,15.94
2017-02-06T10:01:16.064Z,15.87
2017-02-06T10:02:27.044Z,15.99
2017-02-06T10:03:36.974Z,15.94
2017-02-06T10:04:47.303Z,15.92
2017-02-06T10:05:58.033Z,15.88
2017-02-06T10:07:08.381Z,15.87
2017-02-06T10:08:19.350Z,15.87
2017-02-06T10:09:29.287Z,15.87
2017-02-06T10:10:40.023Z,15.87
2017-02-06T10:11:50.758Z,15.99
2017-02-06T10:13:01.488Z,15.84
2017-02-06T10:14:12.477Z,15.84
2017-02-06T10:15:23.200Z,15.84
2017-02-06T10:16:33.523Z,15.94
2017-02-06T10:17:44.262Z,15.87
2017-02-06T10:18:54.995Z,15.96
2017-02-06T10:20:05.569Z,15.92
2017-02-06T10:21:15.896Z,15.85
2017-02-06T10:22:26.647Z,15.87
2017-02-06T10:23:36.193Z,15.84
2017-02-06T10:24:46.166Z,15.76
2017-02-06T10:25:56.731Z,15.78
2017-02-06T10:27:07.449Z,15.78
2017-02-06T10:28:16.582Z,15.84
2017-02-06T10:29:26.908Z,15.87
2017-02-06T10:30:37.246Z,15.91
2017-02-06T10:31:47.817Z,16.02
2017-02-06T10:32:58.550Z,16.02
2017-02-06T10:34:08.494Z,15.98
2017-02-06T10:35:18.457Z,15.94
2017-02-06T10:36:28.806Z,16
2017-02-06T10:37:39.448Z,16.06
2017-02-06T10:38:49.977Z,16.1
2017-02-06T10:40:00.348Z,16.09
2017-02-06T10:41:10.700Z,16.09
2017-02-06T10:42:21.452Z,15.98
2017-02-06T10:43:32.476Z,16.02
2017-02-06T10:44:43.209Z,16.05
2017-02-06T10:45:53.964Z,16
2017-02-06T10:47:04.708Z,16
2017-02-06T10:48:13.890Z,16.05
2017-02-06T10:49:24.556Z,15.91
2017-02-06T10:50:34.953Z,15.87
2017-02-06T10:51:44.504Z,15.87
2017-02-06T10:52:54.838Z,15.92
2017-02-06T10:54:05.582Z,15.84
2017-02-06T10:55:16.162Z,15.98
2017-02-06T10:56:26.953Z,16.09
2017-02-06T10:57:37.282Z,15.9
2017-02-06T10:58:48.038Z,16.05
2017-02-06T10:59:58.258Z,16.05
2017-02-06T11:01:08.604Z,16.03
2017-02-06T11:02:18.965Z,16.03
2017-02-06T11:03:29.343Z,16.09
2017-02-06T11:04:39.705Z,16.05
2017-02-06T11:05:50.296Z,16.09
2017-02-06T11:07:00.640Z,16.08
2017-02-06T11:08:10.979Z,16.12
2017-02-06T11:09:21.708Z,16.05
2017-02-06T11:10:32.453Z,16.03
2017-02-06T11:11:43.039Z,16.16
2017-02-06T11:12:53.397Z,16.02
2017-02-06T11:14:03.758Z,16.02
2017-02-06T11:15:14.088Z,16.06
2017-02-06T11:16:24.822Z,16.06
2017-02-06T11:17:35.445Z,16.16
2017-02-06T11:18:45.789Z,16.21
2017-02-06T11:19:55.714Z,16.22
2017-02-06T11:21:06.470Z,16.21
2017-02-06T11:22:16.815Z,16.21
2017-02-06T11:23:27.054Z,16.18
2017-02-06T11:24:37.383Z,16.21
2017-02-06T11:25:47.721Z,16.1
2017-02-06T11:26:58.069Z,16.22
2017-02-06T11:28:08.458Z,16.16
2017-02-06T11:29:19.139Z,16.21
2017-02-06T11:30:29.501Z,16.1
2017-02-06T11:31:39.447Z,16.13
2017-02-06T11:32:50.188Z,16.09
2017-02-06T11:34:00.934Z,16.09
2017-02-06T11:35:11.963Z,16.16
2017-02-06T11:36:22.305Z,16.1
2017-02-06T11:37:33.043Z,16.21
2017-02-06T11:38:43.760Z,16.29
2017-02-06T11:39:53.696Z,16.28
2017-02-06T11:41:04.346Z,16.21
2017-02-06T11:42:14.716Z,16.24
2017-02-06T11:43:25.069Z,16.22
2017-02-06T11:44:35.801Z,16.24
2017-02-06T11:45:46.183Z,16.24
2017-02-06T11:46:56.811Z,16.24
2017-02-06T11:48:06.742Z,16.26
2017-02-06T11:49:17.494Z,16.18
2017-02-06T11:50:28.294Z,16.25
2017-02-06T11:51:39.043Z,16.25
2017-02-06T11:52:49.631Z,16.18
2017-02-06T11:54:00.368Z,16.24
2017-02-06T11:55:10.678Z,16.21
2017-02-06T11:56:21.043Z,16.17
2017-02-06T11:57:31.412Z,16.36
2017-02-06T11:58:42.407Z,16.25
2017-02-06T11:59:53.162Z,16.29
2017-02-06T12:01:03.120Z,16.24
2017-02-06T12:02:13.066Z,16.18
2017-02-06T12:03:23.399Z,16.31
2017-02-06T12:04:33.987Z,16.25
2017-02-06T12:05:44.720Z,16.29
2017-02-06T12:06:55.069Z,16.25
2017-02-06T12:08:05.786Z,16.21
2017-02-06T12:09:16.522Z,16.26
2017-02-06T12:10:27.514Z,16.26
2017-02-06T12:11:38.244Z,16.17
2017-02-06T12:12:48.564Z,16.1
2017-02-06T12:13:59.306Z,16.1
2017-02-06T12:15:09.651Z,16.12
2017-02-06T12:16:20.219Z,16.16
2017-02-06T12:17:30.929Z,16.09
2017-02-06T12:18:41.649Z,16.1
2017-02-06T12:19:52.379Z,16.12
2017-02-06T12:21:02.327Z,16.12
2017-02-06T12:22:13.556Z,16.1
2017-02-06T12:23:24.312Z,16.08
2017-02-06T12:24:35.043Z,16.16
2017-02-06T12:25:45.396Z,16.12
2017-02-06T12:26:56.115Z,16.24
2017-02-06T12:28:06.743Z,16.26
2017-02-06T12:29:17.088Z,16.25
2017-02-06T12:30:27.832Z,16.22
2017-02-06T12:31:37.767Z,16.26
2017-02-06T12:32:48.485Z,16.24
2017-02-06T12:33:58.817Z,16.21
2017-02-06T12:35:09.534Z,16.24
2017-02-06T12:36:19.509Z,16.22
2017-02-06T12:37:30.237Z,16.26
2017-02-06T12:38:41.219Z,16.29
2017-02-06T12:39:51.547Z,16.36
2017-02-06T12:41:02.289Z,16.26
2017-02-06T12:42:12.628Z,16.25
2017-02-06T12:43:22.956Z,16.09
2017-02-06T12:44:33.969Z,16.1
2017-02-06T12:45:44.721Z,16.37
2017-02-06T12:46:55.051Z,16.34
2017-02-06T12:48:05.419Z,16.34
2017-02-06T12:49:16.248Z,16.37
2017-02-06T12:50:26.818Z,16.39
2017-02-06T12:51:37.150Z,16.47
2017-02-06T12:52:47.885Z,16.34
2017-02-06T12:53:58.226Z,16.31
2017-02-06T12:55:08.557Z,16.28
2017-02-06T12:56:19.887Z,16.28
2017-02-06T12:57:30.615Z,16.26
2017-02-06T12:58:41.343Z,16.29
2017-02-06T12:59:51.671Z,16.26
2017-02-06T13:01:01.995Z,16.16
2017-02-06T13:02:12.200Z,16.21
2017-02-06T13:03:22.153Z,16.12
2017-02-06T13:04:32.504Z,16.09
2017-02-06T13:05:42.830Z,16.12
2017-02-06T13:06:53.570Z,16
2017-02-06T13:08:04.299Z,16.1
2017-02-06T13:09:14.619Z,16.17
2017-02-06T13:10:24.574Z,16.13
2017-02-06T13:11:35.319Z,16.08
2017-02-06T13:12:46.078Z,16.09
2017-02-06T13:13:56.264Z,16.13
2017-02-06T13:15:07.000Z,16.24
2017-02-06T13:16:17.335Z,16.21
2017-02-06T13:17:27.671Z,16.12
2017-02-06T13:18:38.312Z,16.13
2017-02-06T13:19:49.080Z,16.08
2017-02-06T13:20:59.806Z,16.05
2017-02-06T13:22:10.590Z,16.13
2017-02-06T13:23:20.522Z,16.12
2017-02-06T13:24:31.488Z,16.06
2017-02-06T13:25:41.834Z,16.09
2017-02-06T13:26:52.170Z,16.08
2017-02-06T13:28:01.700Z,15.98
2017-02-06T13:29:12.049Z,16.02
2017-02-06T13:30:22.679Z,16.03
2017-02-06T13:31:33.022Z,15.98
2017-02-06T13:32:43.734Z,15.99
2017-02-06T13:33:54.629Z,16.06
2017-02-06T13:35:05.468Z,16.06
2017-02-06T13:36:15.752Z,16.09
2017-02-06T13:37:26.519Z,16.03
2017-02-06T13:38:36.465Z,16.13
2017-02-06T13:39:46.391Z,16.09
2017-02-06T13:40:56.349Z,16.08
2017-02-06T13:42:07.394Z,16.08
2017-02-06T13:43:17.786Z,16.13
2017-02-06T13:44:27.856Z,16.17
2017-02-06T13:45:38.608Z,16.03
2017-02-06T13:46:49.337Z,16.08
2017-02-06T13:47:59.910Z,16.05
2017-02-06T13:49:09.867Z,15.98
2017-02-06T13:50:19.830Z,16.02
2017-02-06T13:51:30.631Z,16.05
2017-02-06T13:52:41.361Z,16.02
2017-02-06T13:53:51.546Z,16.09
2017-02-06T13:55:01.096Z,16.13
2017-02-06T13:56:11.411Z,16.08
2017-02-06T13:57:21.757Z,16.25
2017-02-06T13:58:32.090Z,16.25
2017-02-06T13:59:43.111Z,16.26
2017-02-06T14:00:53.815Z,16.24
2017-02-06T14:02:04.544Z,16.21
2017-02-06T14:03:14.486Z,16.24
2017-02-06T14:04:25.203Z,16.13
2017-02-06T14:05:35.379Z,16.17
2017-02-06T14:06:46.092Z,16.09
2017-02-06T14:07:56.451Z,16.21
2017-02-06T14:09:06.771Z,16.25
2017-02-06T14:10:17.344Z,16.18
2017-02-06T14:11:27.984Z,16.22
2017-02-06T14:12:38.735Z,16.22
2017-02-06T14:13:49.069Z,16.09
2017-02-06T14:14:59.004Z,16.22
2017-02-06T14:16:09.740Z,16.13
2017-02-06T14:17:20.755Z,16.18
2017-02-06T14:18:31.493Z,16.18
2017-02-06T14:19:41.849Z,16.21
2017-02-06T14:20:51.384Z,16.09
2017-02-06T14:22:01.719Z,16.09
2017-02-06T14:23:11.897Z,16.25
2017-02-06T14:24:21.829Z,16.21
2017-02-06T14:25:31.408Z,16.24
2017-02-06T14:26:41.334Z,16.28
2017-02-06T14:27:51.367Z,16.24
2017-02-06T14:29:01.553Z,16.16
2017-02-06T14:30:11.897Z,16.12
2017-02-06T14:31:22.630Z,16.1
2017-02-06T14:32:32.963Z,16.17
2017-02-06T14:33:43.798Z,16.26
2017-02-06T14:34:54.402Z,16.17
2017-02-06T14:36:04.329Z,16.24
2017-02-06T14:37:14.686Z,16.12
2017-02-06T14:38:25.398Z,16.21
2017-02-06T14:39:35.721Z,16.16
2017-02-06T14:40:46.697Z,16.18
2017-02-06T14:41:56.627Z,16.18
2017-02-06T14:43:06.963Z,16.24
2017-02-06T14:44:17.276Z,16.25
2017-02-06T14:45:27.317Z,16.22
2017-02-06T14:46:38.297Z,16.22
2017-02-06T14:47:48.625Z,16.24
2017-02-06T14:48:59.353Z,16.24
2017-02-06T14:50:09.877Z,16.13
2017-02-06T14:51:20.198Z,16.16
2017-02-06T14:52:30.432Z,16.18
2017-02-06T14:53:40.754Z,16.16
2017-02-06T14:54:51.084Z,16.08
2017-02-06T14:56:01.017Z,16.16
2017-02-06T14:57:11.335Z,16.25
2017-02-06T14:58:22.323Z,16.21
2017-02-06T14:59:33.074Z,16.18
2017-02-06T15:00:43.788Z,16.13
2017-02-06T15:01:54.116Z,16.12
2017-02-06T15:03:04.447Z,16.17
2017-02-06T15:04:15.424Z,16.06
2017-02-06T15:05:25.355Z,16.05
2017-02-06T15:06:35.697Z,16.09
2017-02-06T15:07:46.017Z,16.13
2017-02-06T15:08:56.342Z,16.09
2017-02-06T15:10:11.762Z,16.13
2017-02-06T15:11:22.578Z,16.17